Mount Sterling, Iowa
Current Conditions -  °F | °C
As of 4:55 PM on Thursday 27 Nov 2014 (Local Time) from KEOK Reporting Station
Clear Clear  
Wind Chill:   Ceiling: Unl
Heat Index: 16°   Visibility: 10mi
Dew Point:   Wind: 6mph
Humidity: 62%   Direction: 360°N
Pressure: 30.48"   Gusts: NA
Location:  40.62°N, 91.93°W
Report Text: KEOK 272255Z AUTO 36005KT 10SM CLR M09/M15 A3048 RMK AO2
Loading
Personal Weather Stations






























Interactive Weather Map New forecast layout! Learn more

10-Day Weather Forecast

Advertisements
Track Severe Weather on mobile